Time;durP1;ratioP1;P1;durP2;ratioP2;P2;SDS_P1;SDS_P2;PMS_P1;PMS_P2;Temp;Humidity;BMP_temperature;BMP_pressure;BME280_temperature;BME280_humidity;BME280_pressure;Samples;Min_cycle;Max_cycle;Signal;HPM_P1;HPM_P2
2022/06/17 00:00:57;;;;;;;0.88;0.88;;;19.40;60.40;;;;;;5083703;28;20016;-61
2022/06/17 00:03:25;;;;;;;1.13;1.02;;;19.40;60.60;;;;;;5082354;28;20450;-62
2022/06/17 00:05:53;;;;;;;1.08;0.98;;;19.40;60.70;;;;;;5093618;28;20020;-62
2022/06/17 00:08:41;;;;;;;5.20;1.15;;;19.40;60.80;;;;;;5090896;28;20055;-62
2022/06/17 00:11:17;;;;;;;3.42;0.90;;;19.30;60.80;;;;;;5090468;28;20024;-61
2022/06/17 00:13:43;;;;;;;1.17;1.08;;;19.30;60.90;;;;;;5088364;28;20056;-61
2022/06/17 00:16:14;;;;;;;2.03;1.13;;;19.30;61.00;;;;;;5077414;28;20075;-64
2022/06/17 00:18:41;;;;;;;1.00;0.87;;;19.30;61.10;;;;;;5082803;28;20032;-64
2022/06/17 00:21:19;;;;;;;2.15;1.38;;;19.30;61.80;;;;;;5079231;28;20035;-64
2022/06/17 00:23:45;;;;;;;0.95;0.90;;;19.30;61.30;;;;;;5086365;28;20130;-64
2022/06/17 00:26:11;;;;;;;1.38;0.85;;;19.20;61.20;;;;;;5091518;28;20036;-63
2022/06/17 00:28:37;;;;;;;1.25;1.15;;;19.20;61.20;;;;;;5090408;28;20038;-64
2022/06/17 00:31:03;;;;;;;0.73;0.70;;;19.20;61.30;;;;;;5086286;28;20394;-64
2022/06/17 00:33:28;;;;;;;1.42;1.02;;;19.10;61.40;;;;;;5084131;28;20028;-63
2022/06/17 00:35:56;;;;;;;0.73;0.73;;;19.10;61.40;;;;;;5091372;28;20104;-64
2022/06/17 00:38:25;;;;;;;0.93;0.93;;;19.10;61.50;;;;;;5086001;28;20060;-64
2022/06/17 00:40:52;;;;;;;0.82;0.80;;;19.10;61.60;;;;;;5095257;28;20381;-63
2022/06/17 00:43:30;;;;;;;0.95;0.80;;;19.10;61.70;;;;;;5098681;28;20038;-64
2022/06/17 00:46:14;;;;;;;0.88;0.88;;;19.10;61.70;;;;;;5086005;28;20036;-63
2022/06/17 00:48:44;;;;;;;0.70;0.70;;;19.10;61.80;;;;;;5086382;28;20118;-65
2022/06/17 00:51:27;;;;;;;0.80;0.80;;;19.10;61.90;;;;;;5083310;28;20391;-62
2022/06/17 00:54:14;;;;;;;0.85;0.85;;;19.10;61.90;;;;;;5090727;28;20539;-62
2022/06/17 00:56:40;;;;;;;1.10;0.95;;;19.10;61.90;;;;;;5088898;28;20474;-62
2022/06/17 00:59:10;;;;;;;1.77;0.70;;;19.10;61.90;;;;;;5087831;28;20085;-62
2022/06/17 01:01:46;;;;;;;0.88;0.65;;;19.10;62.00;;;;;;5088532;28;20025;-64
2022/06/17 01:04:18;;;;;;;1.25;1.15;;;19.10;62.10;;;;;;5087478;28;20051;-64
2022/06/17 01:06:48;;;;;;;1.63;0.80;;;19.10;62.30;;;;;;5085430;28;20048;-64
2022/06/17 01:12:09;;;;;;;1.13;1.05;;;19.10;62.40;;;;;;5085384;28;20038;-63
2022/06/17 01:14:35;;;;;;;1.08;0.98;;;19.10;62.50;;;;;;5090033;28;20032;-64
2022/06/17 01:17:02;;;;;;;0.90;0.90;;;19.10;62.60;;;;;;5095128;28;20387;-64
2022/06/17 01:19:44;;;;;;;1.88;1.38;;;19.10;62.60;;;;;;5087265;28;20427;-64
2022/06/17 01:22:17;;;;;;;1.50;1.13;;;19.20;62.70;;;;;;5085119;28;20020;-65
2022/06/17 01:24:45;;;;;;;1.05;0.95;;;19.20;62.80;;;;;;5095541;28;20386;-64
2022/06/17 01:27:11;;;;;;;0.77;0.70;;;19.20;62.90;;;;;;5088489;28;20031;-64
2022/06/17 01:29:38;;;;;;;1.90;1.10;;;19.20;62.90;;;;;;5089919;28;20368;-64
2022/06/17 01:32:04;;;;;;;0.80;0.75;;;19.30;62.80;;;;;;5081014;28;20447;-64
2022/06/17 01:34:30;;;;;;;0.60;0.60;;;19.30;62.90;;;;;;5088919;28;20375;-64
2022/06/17 01:36:56;;;;;;;1.45;0.93;;;19.30;62.90;;;;;;5073366;28;20016;-64
2022/06/17 01:39:22;;;;;;;1.23;1.10;;;19.30;62.90;;;;;;5083068;28;20027;-64
2022/06/17 01:41:48;;;;;;;0.77;0.70;;;19.30;62.90;;;;;;5085721;28;20111;-63
2022/06/17 01:44:21;;;;;;;2.05;0.95;;;19.30;63.10;;;;;;5088745;28;20032;-61
2022/06/17 01:46:53;;;;;;;0.98;0.88;;;19.30;63.10;;;;;;5078156;28;20387;-61
2022/06/17 01:49:27;;;;;;;1.17;1.00;;;19.30;63.30;;;;;;5077067;28;20426;-61
2022/06/17 01:51:59;;;;;;;1.13;1.00;;;19.30;63.20;;;;;;5085691;28;20020;-63
2022/06/17 01:54:34;;;;;;;;;;;19.30;63.20;;;;;;5079320;28;20020;-64
2022/06/17 01:57:03;;;;;;;0.95;0.90;;;19.30;63.30;;;;;;5077076;28;19958;-64
2022/06/17 01:59:52;;;;;;;2.67;1.00;;;19.20;63.30;;;;;;5077035;28;20160;-64
2022/06/17 02:02:18;;;;;;;5.60;1.08;;;19.30;63.50;;;;;;5073787;28;21473;-63
2022/06/17 02:04:50;;;;;;;1.30;1.20;;;19.20;64.00;;;;;;5076251;28;20028;-63
2022/06/17 02:07:19;;;;;;;1.13;0.65;;;19.20;63.50;;;;;;5101025;28;20067;-64
2022/06/17 02:09:46;;;;;;;1.17;1.08;;;19.20;63.60;;;;;;5091299;28;20027;-63
2022/06/17 02:12:14;;;;;;;1.63;1.17;;;19.10;63.70;;;;;;5091098;28;20036;-64
2022/06/17 02:14:40;;;;;;;2.97;1.25;;;19.10;63.80;;;;;;5094557;28;20027;-65
2022/06/17 02:17:07;;;;;;;1.55;1.35;;;19.10;64.00;;;;;;5081333;28;20406;-62
2022/06/17 02:19:36;;;;;;;1.63;1.30;;;19.10;64.10;;;;;;5079853;28;20042;-62
2022/06/17 02:22:14;;;;;;;1.10;1.10;;;19.00;64.20;;;;;;5091495;28;20028;-62
2022/06/17 02:24:41;;;;;;;1.00;1.00;;;19.10;64.20;;;;;;5093606;28;20019;-64
2022/06/17 02:27:10;;;;;;;0.80;0.80;;;19.00;64.20;;;;;;5088615;28;20740;-64
2022/06/17 02:29:38;;;;;;;2.80;1.33;;;19.00;64.10;;;;;;5083523;28;20024;-64
2022/06/17 02:32:06;;;;;;;1.40;1.02;;;19.00;64.90;;;;;;5081249;28;20080;-64
2022/06/17 02:34:32;;;;;;;1.27;1.17;;;19.10;64.20;;;;;;5082716;28;20035;-64
2022/06/17 02:37:12;;;;;;;1.25;1.15;;;19.00;64.20;;;;;;5092032;28;20046;-64
2022/06/17 02:39:42;;;;;;;1.63;1.10;;;19.10;64.30;;;;;;5085886;28;20020;-64
2022/06/17 02:42:24;;;;;;;1.58;1.17;;;19.10;64.30;;;;;;5093687;28;20027;-63
2022/06/17 02:44:56;;;;;;;4.95;1.50;;;19.00;64.20;;;;;;5101813;28;20050;-64
2022/06/17 02:47:24;;;;;;;1.58;1.27;;;19.00;64.40;;;;;;5094390;28;20036;-65
2022/06/17 02:49:51;;;;;;;1.55;1.10;;;19.10;64.50;;;;;;5094887;28;20064;-64
2022/06/17 02:52:23;;;;;;;2.05;1.33;;;19.00;64.50;;;;;;5102835;28;20062;-64
2022/06/17 02:55:04;;;;;;;1.38;0.90;;;19.00;64.60;;;;;;5101844;28;20023;-64
2022/06/17 02:57:31;;;;;;;0.95;0.80;;;19.00;64.60;;;;;;5082363;28;20126;-64
2022/06/17 03:00:09;;;;;;;1.38;1.15;;;19.00;64.70;;;;;;5080364;28;20020;-63
2022/06/17 03:03:03;;;;;;;1.10;1.00;;;18.90;64.60;;;;;;5086996;28;20429;-62
2022/06/17 03:05:32;;;;;;;1.40;0.95;;;18.90;64.70;;;;;;5074141;28;20467;-62
2022/06/17 03:07:59;;;;;;;1.85;1.25;;;18.90;64.70;;;;;;5080146;28;20044;-61
2022/06/17 03:10:32;;;;;;;1.08;0.98;;;18.90;64.80;;;;;;5087557;28;20028;-62
2022/06/17 03:13:05;;;;;;;;;;;18.80;64.80;;;;;;5088344;28;20107;-63
2022/06/17 03:15:31;;;;;;;1.20;1.10;;;18.80;65.00;;;;;;5074904;28;19908;-62
2022/06/17 03:17:58;;;;;;;1.95;1.13;;;18.70;65.10;;;;;;5086180;28;20032;-62
2022/06/17 03:20:30;;;;;;;1.67;1.13;;;18.70;65.20;;;;;;5078941;28;20035;-62
2022/06/17 03:23:06;;;;;;;1.73;1.10;;;18.70;65.10;;;;;;5087447;28;20021;-62
2022/06/17 03:25:40;;;;;;;2.45;0.98;;;18.70;65.10;;;;;;5084492;28;20032;-64
2022/06/17 03:28:12;;;;;;;2.72;1.10;;;18.60;65.10;;;;;;5089719;28;20028;-64
2022/06/17 03:30:56;;;;;;;2.60;1.05;;;18.60;65.20;;;;;;5075575;28;20043;-64
2022/06/17 03:33:40;;;;;;;1.20;1.10;;;18.60;65.30;;;;;;5084490;28;20435;-64
2022/06/17 03:36:37;;;;;;;1.73;1.45;;;18.60;65.30;;;;;;5072236;28;20020;-64
2022/06/17 03:39:11;;;;;;;0.90;0.90;;;18.60;65.30;;;;;;5072692;28;20060;-64
2022/06/17 03:41:54;;;;;;;1.20;1.10;;;18.50;65.40;;;;;;5081510;28;20020;-64
2022/06/17 03:44:24;;;;;;;1.25;1.15;;;18.50;65.40;;;;;;5087433;28;20020;-64
2022/06/17 03:46:55;;;;;;;2.05;1.30;;;18.50;65.50;;;;;;5075036;28;20028;-64
2022/06/17 03:49:34;;;;;;;0.80;0.80;;;18.50;65.40;;;;;;5078055;28;20035;-64
2022/06/17 03:52:09;;;;;;;1.45;1.33;;;18.50;65.50;;;;;;5087403;28;20024;-64
2022/06/17 03:54:35;;;;;;;2.08;1.50;;;18.50;65.50;;;;;;5078410;28;20031;-63
2022/06/17 03:57:01;;;;;;;1.05;1.00;;;18.50;65.60;;;;;;5080118;28;20032;-62
2022/06/17 03:59:30;;;;;;;2.33;1.35;;;18.50;65.60;;;;;;5071806;28;20106;-62
2022/06/17 04:02:13;;;;;;;1.27;1.17;;;18.50;65.70;;;;;;5073173;28;20021;-62
2022/06/17 04:04:43;;;;;;;1.50;1.27;;;18.50;65.80;;;;;;5087195;28;20020;-62
2022/06/17 04:07:11;;;;;;;1.80;1.37;;;18.50;65.90;;;;;;5049275;28;1138939;-62
2022/06/17 04:09:39;;;;;;;1.40;1.23;;;18.60;65.90;;;;;;5086373;28;20322;-63
2022/06/17 04:12:27;;;;;;;1.65;1.52;;;18.70;65.90;;;;;;5084578;28;20033;-65
2022/06/17 04:14:58;;;;;;;2.35;1.63;;;18.80;66.10;;;;;;5081857;28;20028;-64
2022/06/17 04:17:30;;;;;;;1.95;1.50;;;18.80;66.30;;;;;;5085253;28;20077;-63
2022/06/17 04:20:20;;;;;;;2.47;1.40;;;18.80;66.20;;;;;;5072517;28;20471;-64
2022/06/17 04:22:47;;;;;;;1.10;1.08;;;19.00;66.30;;;;;;5095236;28;20059;-62
2022/06/17 04:25:37;;;;;;;1.35;1.25;;;19.00;66.20;;;;;;5081266;28;20074;-64
2022/06/17 04:28:06;;;;;;;1.20;1.00;;;19.10;66.30;;;;;;5076223;28;20024;-62
2022/06/17 04:30:42;;;;;;;1.60;1.23;;;19.10;66.20;;;;;;5071720;28;20036;-63
2022/06/17 04:33:16;;;;;;;1.15;0.98;;;19.20;66.30;;;;;;5073403;28;20024;-62
2022/06/17 04:35:42;;;;;;;1.55;1.40;;;19.20;66.50;;;;;;5080168;28;20115;-64
2022/06/17 04:38:09;;;;;;;1.45;1.35;;;19.30;66.70;;;;;;5073565;28;20111;-65
2022/06/17 04:40:47;;;;;;;2.97;1.10;;;19.30;66.80;;;;;;5080314;28;20510;-63
2022/06/17 04:43:36;;;;;;;1.20;1.10;;;19.40;66.70;;;;;;5087153;28;20044;-65
2022/06/17 04:46:26;;;;;;;1.98;1.63;;;19.40;66.80;;;;;;5083186;28;20023;-63
2022/06/17 04:48:57;;;;;;;1.42;1.33;;;19.50;66.70;;;;;;5082070;28;20024;-64
2022/06/17 04:51:27;;;;;;;2.35;1.50;;;19.60;66.70;;;;;;5087028;28;20415;-63
2022/06/17 04:53:54;;;;;;;1.52;1.42;;;19.60;66.60;;;;;;5077070;28;20029;-62
2022/06/17 04:56:36;;;;;;;1.48;1.33;;;19.70;66.60;;;;;;5074343;28;20559;-62
2022/06/17 04:59:29;;;;;;;2.35;1.50;;;19.70;66.60;;;;;;5070266;28;20542;-62
2022/06/17 05:01:56;;;;;;;3.25;1.48;;;19.80;66.50;;;;;;5086533;28;20035;-64
2022/06/17 05:04:23;;;;;;;3.40;2.17;;;19.80;66.50;;;;;;5080111;28;20052;-63
2022/06/17 05:06:48;;;;;;;2.20;1.45;;;19.80;66.40;;;;;;5074073;28;20455;-64
2022/06/17 05:09:14;;;;;;;2.17;1.52;;;19.80;66.40;;;;;;5067778;28;20021;-64
2022/06/17 05:11:43;;;;;;;2.35;1.83;;;19.90;66.50;;;;;;5076608;28;20027;-65
2022/06/17 05:14:23;;;;;;;1.70;1.60;;;19.90;66.60;;;;;;5071459;28;20058;-64
2022/06/17 05:16:48;;;;;;;1.80;1.52;;;20.00;66.60;;;;;;5079929;28;20028;-64
2022/06/17 05:19:14;;;;;;;4.40;1.33;;;20.00;66.40;;;;;;5075093;28;20039;-63
2022/06/17 05:21:40;;;;;;;1.38;1.15;;;20.00;66.30;;;;;;5078572;28;20105;-64
2022/06/17 05:24:08;;;;;;;1.83;1.42;;;20.10;66.20;;;;;;5083835;28;20077;-64
2022/06/17 05:26:33;;;;;;;2.25;1.52;;;20.10;66.10;;;;;;5078273;28;20082;-63
2022/06/17 05:28:59;;;;;;;1.65;1.55;;;20.20;66.00;;;;;;5087401;28;20040;-64
2022/06/17 05:31:26;;;;;;;1.13;1.02;;;20.20;65.90;;;;;;5074256;28;20028;-64
2022/06/17 05:33:52;;;;;;;2.55;2.17;;;20.20;65.60;;;;;;5074510;28;20035;-64
2022/06/17 05:36:18;;;;;;;1.55;1.45;;;20.30;65.40;;;;;;5087778;28;20028;-64
2022/06/17 05:38:43;;;;;;;2.08;1.88;;;20.30;65.40;;;;;;5087786;28;20081;-65
2022/06/17 05:41:17;;;;;;;2.20;1.60;;;20.30;65.30;;;;;;5072721;28;20036;-62
2022/06/17 05:43:43;;;;;;;2.97;1.85;;;20.30;65.30;;;;;;5089606;28;20382;-63
2022/06/17 05:46:09;;;;;;;1.92;1.60;;;20.30;65.30;;;;;;5088728;28;20024;-64
2022/06/17 05:48:35;;;;;;;3.40;1.80;;;20.30;65.30;;;;;;5088323;28;20071;-63
2022/06/17 05:51:01;;;;;;;1.50;1.40;;;20.40;65.10;;;;;;5095277;28;20044;-61
2022/06/17 05:53:26;;;;;;;4.43;2.10;;;20.60;64.80;;;;;;5084177;28;20032;-61
2022/06/17 05:55:54;;;;;;;3.10;1.70;;;20.70;64.20;;;;;;5082120;28;20229;-64
2022/06/17 05:58:20;;;;;;;2.13;1.67;;;20.90;63.70;;;;;;5077840;28;20028;-63
2022/06/17 06:00:46;;;;;;;2.45;1.63;;;21.00;63.40;;;;;;5095834;28;20491;-63
2022/06/17 06:03:19;;;;;;;2.25;1.73;;;21.20;62.60;;;;;;5087885;28;20039;-63
2022/06/17 06:05:45;;;;;;;2.78;2.00;;;21.30;62.20;;;;;;5083951;28;20279;-64
2022/06/17 06:08:10;;;;;;;1.83;1.35;;;21.50;62.10;;;;;;5085282;28;20055;-62
2022/06/17 06:10:36;;;;;;;1.88;1.52;;;21.60;61.80;;;;;;5075430;28;20028;-62
2022/06/17 06:13:03;;;;;;;1.60;1.50;;;21.70;61.50;;;;;;5090612;28;20024;-62
2022/06/17 06:15:38;;;;;;;2.00;1.20;;;21.80;60.90;;;;;;5092462;28;20031;-62
2022/06/17 06:18:08;;;;;;;3.13;1.33;;;21.90;60.80;;;;;;5082763;28;20375;-64
2022/06/17 06:20:34;;;;;;;12.60;2.15;;;22.10;60.30;;;;;;5088296;28;20055;-62
2022/06/17 06:23:00;;;;;;;2.50;1.00;;;22.20;60.10;;;;;;5088677;28;20054;-63
2022/06/17 06:25:25;;;;;;;1.85;1.50;;;22.30;59.60;;;;;;5074271;28;20129;-62
2022/06/17 06:27:51;;;;;;;2.55;1.40;;;22.30;59.40;;;;;;5073990;28;20025;-64
2022/06/17 06:30:21;;;;;;;2.05;1.38;;;22.40;59.30;;;;;;5076938;28;20112;-64
2022/06/17 06:32:48;;;;;;;0.77;0.77;;;22.40;59.10;;;;;;5080629;28;20029;-62
2022/06/17 06:35:15;;;;;;;1.40;1.30;;;22.50;58.90;;;;;;5094479;28;20012;-63
2022/06/17 06:37:41;;;;;;;6.05;1.65;;;22.60;58.90;;;;;;5074360;28;20082;-63
2022/06/17 06:40:07;;;;;;;1.60;1.13;;;22.60;58.40;;;;;;5093846;28;20032;-64
2022/06/17 06:42:33;;;;;;;2.10;1.25;;;22.60;58.10;;;;;;5077056;28;20097;-64
2022/06/17 06:44:58;;;;;;;1.35;0.90;;;22.60;58.30;;;;;;5074710;28;20041;-60
2022/06/17 06:47:24;;;;;;;1.95;1.20;;;22.60;58.00;;;;;;5075348;28;20033;-61
2022/06/17 06:49:50;;;;;;;1.33;1.08;;;22.60;57.80;;;;;;5084306;28;20055;-60
2022/06/17 06:52:16;;;;;;;0.95;0.90;;;22.60;57.80;;;;;;5086116;28;20028;-60
2022/06/17 06:54:42;;;;;;;0.90;0.65;;;22.70;57.80;;;;;;5079417;28;20024;-61
2022/06/17 06:57:10;;;;;;;1.85;0.93;;;22.90;57.40;;;;;;5081552;28;20529;-60
2022/06/17 06:59:36;;;;;;;1.40;0.70;;;23.10;56.90;;;;;;5083641;28;20066;-61
2022/06/17 07:02:02;;;;;;;3.08;0.93;;;23.20;56.70;;;;;;5075965;28;20070;-61
2022/06/17 07:04:28;;;;;;;0.80;0.77;;;23.30;56.60;;;;;;5085549;28;20403;-61
2022/06/17 07:06:53;;;;;;;0.57;0.57;;;23.40;56.40;;;;;;5078193;28;20438;-61
2022/06/17 07:09:21;;;;;;;1.13;0.82;;;23.40;56.30;;;;;;5081371;28;20067;-61
2022/06/17 07:11:46;;;;;;;1.70;1.33;;;23.50;56.10;;;;;;5074662;28;20029;-62
2022/06/17 07:14:12;;;;;;;2.22;0.82;;;23.50;55.80;;;;;;5075314;28;20040;-63
2022/06/17 07:16:38;;;;;;;1.00;1.00;;;23.50;55.60;;;;;;5087626;28;20028;-63
2022/06/17 07:19:07;;;;;;;2.80;0.57;;;23.50;55.40;;;;;;5088745;28;20390;-64
2022/06/17 07:21:33;;;;;;;0.60;0.60;;;23.60;55.60;;;;;;5081803;28;20036;-61
2022/06/17 07:23:59;;;;;;;0.95;0.90;;;23.70;55.30;;;;;;5073767;28;20036;-62
2022/06/17 07:26:26;;;;;;;1.27;0.93;;;23.70;54.60;;;;;;5086962;28;20361;-62
2022/06/17 07:28:53;;;;;;;0.57;0.57;;;23.80;54.70;;;;;;5083236;28;20043;-61
2022/06/17 07:31:20;;;;;;;0.60;0.60;;;23.90;54.70;;;;;;5090415;28;20093;-62
2022/06/17 07:33:46;;;;;;;0.90;0.85;;;24.00;54.50;;;;;;5080040;28;20060;-61
2022/06/17 07:41:43;;;;;;;0.65;0.50;;;24.10;54.10;;;;;;5081088;28;20508;-62
2022/06/17 07:44:08;;;;;;;1.08;0.60;;;24.10;53.60;;;;;;5062154;28;20119;-63
2022/06/17 07:46:34;;;;;;;1.58;1.00;;;24.10;52.90;;;;;;5078148;28;20390;-62
2022/06/17 07:49:00;;;;;;;0.85;0.80;;;24.10;52.60;;;;;;5080058;28;20038;-63
2022/06/17 07:51:27;;;;;;;1.20;0.93;;;24.20;52.00;;;;;;5076155;28;20529;-64
2022/06/17 07:53:53;;;;;;;0.80;0.80;;;24.20;51.80;;;;;;5083177;28;20052;-62
2022/06/17 07:56:20;;;;;;;0.60;0.60;;;24.20;51.00;;;;;;5072222;28;20067;-62
2022/06/17 07:58:46;;;;;;;1.77;1.40;;;24.30;51.00;;;;;;5090331;28;20105;-62
2022/06/17 08:01:13;;;;;;;0.93;0.88;;;24.30;50.80;;;;;;5076471;28;20463;-62
2022/06/17 08:03:39;;;;;;;0.68;0.68;;;24.40;50.90;;;;;;5081280;28;20522;-62
2022/06/17 08:06:05;;;;;;;1.33;1.20;;;24.50;51.00;;;;;;5077616;28;20059;-62
2022/06/17 08:08:32;;;;;;;1.05;0.70;;;24.50;50.40;;;;;;5071412;28;20087;-61
2022/06/17 08:11:00;;;;;;;0.82;0.82;;;24.60;50.70;;;;;;5060079;28;20025;-61
2022/06/17 08:13:27;;;;;;;1.35;1.13;;;24.70;50.70;;;;;;5078246;28;20059;-62
2022/06/17 08:15:55;;;;;;;1.60;0.77;;;24.80;50.00;;;;;;5077267;28;20499;-62
2022/06/17 08:18:21;;;;;;;1.67;0.90;;;24.80;49.70;;;;;;5070327;28;20036;-62
2022/06/17 08:20:48;;;;;;;1.98;1.52;;;24.80;49.50;;;;;;5074794;28;20046;-63
2022/06/17 08:23:14;;;;;;;1.75;1.30;;;24.90;49.40;;;;;;5070837;28;20025;-64
2022/06/17 08:25:42;;;;;;;2.28;0.93;;;24.90;48.80;;;;;;5074460;28;20043;-63
2022/06/17 08:28:11;;;;;;;1.25;0.90;;;24.90;49.10;;;;;;5083812;28;20033;-63
2022/06/17 08:30:46;;;;;;;1.05;0.88;;;25.00;49.30;;;;;;5084444;28;20028;-63
2022/06/17 08:33:12;;;;;;;1.60;0.90;;;25.10;48.80;;;;;;5081998;28;20406;-63
2022/06/17 08:35:43;;;;;;;1.10;1.00;;;25.10;49.10;;;;;;5078402;28;20062;-61
2022/06/17 08:38:12;;;;;;;0.65;0.65;;;25.20;48.50;;;;;;5081800;28;20490;-62
2022/06/17 08:40:53;;;;;;;2.08;1.30;;;25.30;48.30;;;;;;5075855;28;20024;-62
2022/06/17 08:43:24;;;;;;;1.52;1.20;;;25.40;48.30;;;;;;5082587;28;20497;-62
2022/06/17 08:46:02;;;;;;;1.00;0.90;;;25.50;48.20;;;;;;5075056;28;20036;-61
2022/06/17 08:48:50;;;;;;;1.45;1.33;;;25.60;48.20;;;;;;5070587;28;20795;-62
2022/06/17 08:51:31;;;;;;;0.93;0.85;;;25.60;48.10;;;;;;5074595;28;20103;-62
2022/06/17 08:54:26;;;;;;;1.13;1.08;;;25.70;48.10;;;;;;5078534;28;20476;-61
2022/06/17 08:57:11;;;;;;;1.65;0.70;;;25.80;47.90;;;;;;5081702;28;20094;-63
2022/06/17 08:59:58;;;;;;;0.63;0.63;;;25.90;48.00;;;;;;5074182;28;20028;-63
2022/06/17 09:02:44;;;;;;;1.42;1.33;;;26.10;48.00;;;;;;5086907;28;20089;-62
2022/06/17 09:05:23;;;;;;;1.20;1.10;;;26.10;46.60;;;;;;5087351;28;20024;-63
2022/06/17 09:08:03;;;;;;;1.02;1.00;;;26.20;47.00;;;;;;5075676;28;20427;-62
2022/06/17 09:10:39;;;;;;;1.15;1.00;;;26.20;47.20;;;;;;5075449;28;20036;-62
2022/06/17 09:13:39;;;;;;;1.42;1.30;;;26.30;46.80;;;;;;5089176;28;20103;-63
2022/06/17 09:16:40;;;;;;;2.25;1.50;;;26.30;46.40;;;;;;5072927;28;21066;-62
2022/06/17 09:19:08;;;;;;;1.95;1.20;;;26.30;46.20;;;;;;5098222;27;20492;-62
2022/06/17 09:21:45;;;;;;;0.85;0.80;;;26.40;45.50;;;;;;5085062;28;20032;-63
2022/06/17 09:24:16;;;;;;;2.05;1.13;;;26.40;45.30;;;;;;5077830;28;20034;-62
2022/06/17 09:27:01;;;;;;;1.17;0.82;;;26.40;45.60;;;;;;5071064;28;20029;-63
2022/06/17 09:29:46;;;;;;;0.60;0.60;;;26.60;45.30;;;;;;5078870;28;20044;-62
2022/06/17 09:32:17;;;;;;;1.15;1.08;;;26.80;46.30;;;;;;5079253;28;20027;-62
2022/06/17 09:35:04;;;;;;;1.08;1.00;;;26.90;45.80;;;;;;5074005;28;20040;-62
2022/06/17 09:37:45;;;;;;;2.25;0.90;;;27.00;44.20;;;;;;5076006;28;20013;-62
2022/06/17 09:40:19;;;;;;;2.30;1.98;;;27.00;44.70;;;;;;5080251;28;20608;-64
2022/06/17 09:43:05;;;;;;;1.15;1.00;;;27.10;45.20;;;;;;5068794;28;20024;-64
2022/06/17 09:45:39;;;;;;;1.13;0.90;;;27.20;45.10;;;;;;5083875;28;20046;-64
2022/06/17 09:48:18;;;;;;;1.67;1.58;;;27.30;44.50;;;;;;5071405;28;20035;-64
2022/06/17 09:50:50;;;;;;;1.05;0.95;;;27.30;43.50;;;;;;5067372;28;20071;-63
2022/06/17 09:53:22;;;;;;;0.90;0.90;;;27.40;44.30;;;;;;5067059;28;20081;-64
2022/06/17 09:55:57;;;;;;;;;;;27.40;44.20;;;;;;5079668;28;20110;-64
2022/06/17 09:58:34;;;;;;;0.85;0.85;;;27.50;44.20;;;;;;5077974;28;19920;-64
2022/06/17 10:01:00;;;;;;;2.47;1.35;;;27.50;44.40;;;;;;5079875;28;20038;-65
2022/06/17 10:03:32;;;;;;;2.60;1.10;;;27.70;44.00;;;;;;5078157;28;20117;-65
2022/06/17 10:06:28;;;;;;;0.82;0.82;;;27.70;44.20;;;;;;5078155;28;20580;-63
2022/06/17 10:09:12;;;;;;;3.25;1.23;;;27.90;44.20;;;;;;5070583;28;20065;-65
2022/06/17 10:12:00;;;;;;;1.30;0.95;;;27.90;43.50;;;;;;5071013;28;20338;-64
2022/06/17 10:15:22;;;;;;;2.22;1.10;;;28.00;42.40;;;;;;5077854;28;20025;-65
2022/06/17 10:21:04;;;;;;;1.17;1.08;;;27.90;41.40;;;;;;5020259;28;20052;-64
2022/06/17 10:23:45;;;;;;;1.15;1.00;;;27.90;42.00;;;;;;5029548;28;20044;-64
2022/06/17 10:26:39;;;;;;;0.68;0.68;;;28.10;41.90;;;;;;5075006;28;20036;-64
2022/06/17 10:29:38;;;;;;;1.13;0.95;;;28.30;41.80;;;;;;5087876;28;20106;-62
2022/06/17 10:32:05;;;;;;;1.10;0.70;;;28.40;41.90;;;;;;5083868;28;20043;-63
2022/06/17 10:34:45;;;;;;;0.80;0.80;;;28.50;42.10;;;;;;5082747;28;20109;-62
2022/06/17 10:37:12;;;;;;;1.20;0.93;;;28.80;42.10;;;;;;5083084;28;20029;-62
2022/06/17 10:39:39;;;;;;;0.93;0.93;;;29.00;41.20;;;;;;5076970;28;20629;-64
2022/06/17 10:42:07;;;;;;;1.45;1.23;;;29.10;41.30;;;;;;5088332;28;20035;-65
2022/06/17 10:44:33;;;;;;;1.23;1.13;;;29.20;40.30;;;;;;5082373;28;20491;-64
2022/06/17 10:47:22;;;;;;;1.00;1.00;;;29.20;40.20;;;;;;5080036;28;20252;-64
2022/06/17 10:49:56;;;;;;;2.00;0.80;;;29.20;40.50;;;;;;5064801;28;20033;-64
2022/06/17 10:52:37;;;;;;;0.80;0.80;;;29.30;40.20;;;;;;5075632;28;20459;-62
2022/06/17 10:55:03;;;;;;;0.80;0.80;;;29.30;40.60;;;;;;5071550;28;20103;-62
2022/06/17 10:57:37;;;;;;;1.02;1.02;;;29.50;40.50;;;;;;5073858;28;20032;-61
2022/06/17 11:00:22;;;;;;;1.02;0.93;;;29.60;39.50;;;;;;5072683;28;20052;-61
2022/06/17 11:02:48;;;;;;;1.40;1.30;;;29.50;39.20;;;;;;5084254;28;20028;-61
2022/06/17 11:05:31;;;;;;;0.90;0.90;;;29.60;39.50;;;;;;5075242;28;20031;-62
2022/06/17 11:07:57;;;;;;;2.05;0.85;;;29.70;39.40;;;;;;5085251;28;20036;-62
2022/06/17 11:10:30;;;;;;;1.05;1.05;;;29.80;39.70;;;;;;5071002;28;20138;-62
2022/06/17 11:13:01;;;;;;;0.90;0.90;;;30.00;38.50;;;;;;5074241;28;20076;-62
2022/06/17 11:15:55;;;;;;;0.95;0.95;;;30.00;37.60;;;;;;5075991;28;20028;-62
2022/06/17 11:18:27;;;;;;;2.03;0.90;;;30.00;35.90;;;;;;5079661;28;20064;-63
2022/06/17 11:21:00;;;;;;;;;;;30.00;37.10;;;;;;5088348;28;20028;-62
2022/06/17 11:23:35;;;;;;;0.77;0.77;;;30.10;37.50;;;;;;5084771;28;19960;-62
2022/06/17 11:26:15;;;;;;;1.20;1.10;;;30.30;38.00;;;;;;5085487;28;20054;-62
2022/06/17 11:28:48;;;;;;;0.98;0.98;;;30.30;37.10;;;;;;5079650;28;20389;-62
2022/06/17 11:31:36;;;;;;;1.10;1.10;;;30.30;36.70;;;;;;5079177;28;20451;-65
2022/06/17 11:34:12;;;;;;;0.85;0.85;;;30.40;36.40;;;;;;5083888;28;20441;-64
2022/06/17 11:36:53;;;;;;;0.90;0.88;;;30.30;36.00;;;;;;5087147;28;20089;-64
2022/06/17 11:39:33;;;;;;;1.38;0.98;;;30.30;37.00;;;;;;5078827;28;20025;-62
2022/06/17 11:42:18;;;;;;;1.85;1.00;;;30.40;37.10;;;;;;5084156;28;20109;-62
2022/06/17 11:44:50;;;;;;;0.70;0.70;;;30.50;37.20;;;;;;5085902;28;20051;-63
2022/06/17 11:47:24;;;;;;;1.27;1.17;;;30.70;37.00;;;;;;5085472;28;20032;-62
2022/06/17 11:49:50;;;;;;;1.17;1.17;;;30.80;36.90;;;;;;5085047;28;20058;-61
2022/06/17 11:52:34;;;;;;;2.63;1.35;;;30.80;36.30;;;;;;5085397;28;20379;-62
2022/06/17 11:55:00;;;;;;;3.15;1.38;;;30.90;36.20;;;;;;5081732;28;20553;-64
2022/06/17 11:57:40;;;;;;;1.27;1.17;;;31.00;36.70;;;;;;5082005;28;20475;-65
2022/06/17 12:00:18;;;;;;;0.90;0.90;;;31.00;36.60;;;;;;5077532;28;20024;-65
2022/06/17 12:02:58;;;;;;;1.00;0.90;;;31.10;37.10;;;;;;5082442;28;20035;-62
2022/06/17 12:05:28;;;;;;;2.05;1.00;;;31.10;36.50;;;;;;5084810;28;20368;-62
2022/06/17 12:08:09;;;;;;;1.40;1.30;;;31.30;36.90;;;;;;5084335;28;20128;-62
2022/06/17 12:10:47;;;;;;;;;;;31.30;36.40;;;;;;5081202;28;20076;-62
2022/06/17 12:13:42;;;;;;;0.98;0.98;;;31.40;36.40;;;;;;5085948;28;19915;-61
2022/06/17 12:16:19;;;;;;;3.90;0.90;;;31.20;35.90;;;;;;5082815;28;20017;-64
2022/06/17 12:18:48;;;;;;;1.40;1.10;;;31.20;36.40;;;;;;5080576;28;20388;-63
2022/06/17 12:21:25;;;;;;;1.10;1.00;;;31.30;35.40;;;;;;5081970;28;20660;-64
2022/06/17 12:23:56;;;;;;;2.40;1.10;;;31.50;35.00;;;;;;5081675;28;20040;-64
2022/06/17 12:26:49;;;;;;;2.65;1.40;;;31.60;34.90;;;;;;5077844;28;20032;-64
2022/06/17 12:29:22;;;;;;;0.75;0.75;;;31.70;35.30;;;;;;5079465;28;20036;-64
2022/06/17 12:31:58;;;;;;;1.15;1.05;;;31.90;35.50;;;;;;5087703;28;20486;-64
2022/06/17 12:34:41;;;;;;;1.85;1.00;;;32.00;34.80;;;;;;5081876;28;20032;-65
2022/06/17 12:37:57;;;;;;;0.82;0.82;;;32.10;35.40;;;;;;5077372;28;20469;-66
2022/06/17 12:40:29;;;;;;;1.63;1.52;;;32.20;34.90;;;;;;5052939;28;20049;-64
2022/06/17 12:43:17;;;;;;;1.20;1.10;;;32.20;34.80;;;;;;5084020;28;20028;-63
2022/06/17 12:45:55;;;;;;;1.45;1.02;;;32.30;34.30;;;;;;5080928;28;20024;-64
2022/06/17 12:48:26;;;;;;;2.78;1.08;;;32.40;34.00;;;;;;5080278;28;20346;-64
2022/06/17 12:54:28;;;;;;;1.15;1.10;;;32.50;34.50;;;;;;5081453;28;20082;-65
2022/06/17 12:57:07;;;;;;;0.90;0.90;;;32.60;34.30;;;;;;5036878;28;20153;-64
2022/06/17 12:59:54;;;;;;;3.40;1.35;;;32.70;34.50;;;;;;5082008;28;20040;-65
2022/06/17 13:02:42;;;;;;;1.08;1.00;;;32.90;34.40;;;;;;5078524;28;20039;-65
2022/06/17 13:05:33;;;;;;;1.20;1.10;;;32.90;33.40;;;;;;5078854;28;20032;-65
2022/06/17 13:08:12;;;;;;;;;;;32.70;33.70;;;;;;5082287;28;20050;-64
2022/06/17 13:11:06;;;;;;;1.48;1.38;;;32.80;33.30;;;;;;5080985;28;19920;-62
2022/06/17 13:14:09;;;;;;;1.23;1.13;;;32.70;33.20;;;;;;5080760;28;20020;-64
2022/06/17 13:16:45;;;;;;;0.65;0.65;;;32.80;33.20;;;;;;5083500;28;20028;-63
2022/06/17 13:19:27;;;;;;;1.00;0.90;;;32.80;33.40;;;;;;5077851;28;20023;-64
2022/06/17 13:22:06;;;;;;;0.90;0.90;;;32.90;32.80;;;;;;5076911;28;20119;-64
2022/06/17 13:24:40;;;;;;;0.82;0.82;;;33.10;33.20;;;;;;5079167;28;20615;-64
2022/06/17 13:27:20;;;;;;;1.27;1.10;;;33.10;32.90;;;;;;5079463;28;20085;-64
2022/06/17 13:29:59;;;;;;;1.60;1.20;;;33.20;32.70;;;;;;5082781;28;20028;-64
2022/06/17 13:32:48;;;;;;;1.40;1.30;;;33.20;32.10;;;;;;5084089;28;20030;-64
2022/06/17 13:35:17;;;;;;;1.52;1.20;;;33.20;32.10;;;;;;5087316;28;20027;-61